CheckWX is a tool to help pilots better visualize weather data.  It is not intended as a substitute for an official pre-flight weather briefing.

14:43:21 UTC

KHEI METAR
Hettinger Municipal Airport
Hettinger, North Dakota, USA
Current

50 mins ago

KHEI 201353Z AUTO 12005KT 10SM OVC100 05/02 A3010 RMK AO2 SLP206 T00500022
Observed
May-20 @ 13:53 UTC
Wind
  • 120° at 5 KTS
Visibility
10 SM
Flight Rules
VFR
Cloud Levels
  • Overcast at 10,000' AGL
Temperature
C / 41°F
Dewpoint
C / 36°F
Humidity
81%
Altimeter
30.1" Hg
Pressure
1019.32 hPa
Previous

2 hours ago

KHEI 201253Z AUTO 00000KT 10SM SCT110 03/01 A3011 RMK AO2 SLP212 T00280011
Observed
May-20 @ 12:53 UTC
Visibility
10 SM
Flight Rules
VFR
Cloud Levels
  • Scattered at 11,000' AGL
Temperature
C / 37°F
Dewpoint
C / 34°F
Humidity
87%
Altimeter
30.11" Hg
Pressure
1019.62 hPa
Previous

3 hours ago

KHEI 201153Z AUTO 00000KT 10SM BKN043 M01/M02 A3011 RMK AO2 SLP215 T10111017 10028 21022 53005
Observed
May-20 @ 11:53 UTC
Visibility
10 SM
Flight Rules
VFR
Cloud Levels
  • Broken at 4,300' AGL
Temperature
-1°C / 30°F
Dewpoint
-2°C / 28°F
Humidity
93%
Altimeter
30.11" Hg
Pressure
1019.62 hPa